Time;durP1;ratioP1;P1;durP2;ratioP2;P2;SDS_P1;SDS_P2;PMS_P1;PMS_P2;Temp;Humidity;BMP_temperature;BMP_pressure;BME280_temperature;BME280_humidity;BME280_pressure;Samples;Min_cycle;Max_cycle;Signal;HPM_P1;HPM_P2
2021/09/18 00:01:15;;;;;;;18.27;8.87;;;;;;;13.97;100.00;100111.30;1730075;82;21635;-69
2021/09/18 00:03:43;;;;;;;20.80;9.87;;;;;;;13.81;100.00;100106.03;1737835;82;21154;-70
2021/09/18 00:06:11;;;;;;;23.17;10.70;;;;;;;13.77;100.00;100116.13;1737049;82;21163;-70
2021/09/18 00:08:37;;;;;;;19.53;10.77;;;;;;;13.60;100.00;100113.16;1736829;82;21137;-70
2021/09/18 00:11:05;;;;;;;19.43;11.77;;;;;;;13.52;100.00;100118.59;1734154;82;21246;-75
2021/09/18 00:13:32;;;;;;;15.87;9.93;;;;;;;13.50;100.00;100122.45;1736009;82;21621;-71
2021/09/18 00:16:00;;;;;;;18.43;10.73;;;;;;;13.61;100.00;100119.20;1735194;82;21080;-69
2021/09/18 00:18:28;;;;;;;17.70;9.57;;;;;;;13.56;100.00;100115.90;1730015;81;21387;-69
2021/09/18 00:20:58;;;;;;;20.60;10.43;;;;;;;13.60;100.00;100118.41;1733687;81;21140;-70
2021/09/18 00:23:25;;;;;;;18.00;9.03;;;;;;;13.66;100.00;100114.14;1732139;82;21748;-71
2021/09/18 00:25:52;;;;;;;18.20;9.67;;;;;;;13.75;100.00;100110.30;1738861;82;21770;-71
2021/09/18 00:28:20;;;;;;;23.93;11.03;;;;;;;13.55;100.00;100110.84;1728159;82;21211;-71
2021/09/18 00:30:47;;;;;;;16.77;9.97;;;;;;;13.47;100.00;100113.19;1734331;82;21263;-71
2021/09/18 00:33:13;;;;;;;19.90;12.03;;;;;;;13.51;100.00;100113.07;1729223;82;21725;-72
2021/09/18 00:35:39;;;;;;;18.43;11.50;;;;;;;13.57;100.00;100108.33;1733310;82;21855;-72
2021/09/18 00:38:06;;;;;;;21.03;11.10;;;;;;;13.63;100.00;100102.76;1738038;82;21374;-70
2021/09/18 00:40:32;;;;;;;23.83;10.90;;;;;;;13.61;100.00;100099.05;1734196;82;21274;-68
2021/09/18 00:42:59;;;;;;;24.30;14.47;;;;;;;13.64;100.00;100097.84;1736144;81;21553;-68
2021/09/18 00:45:27;;;;;;;27.70;15.37;;;;;;;13.70;100.00;100100.12;1733119;82;21887;-73
2021/09/18 00:47:55;;;;;;;24.10;15.63;;;;;;;13.62;100.00;100096.72;1732953;82;21615;-70
2021/09/18 00:50:24;;;;;;;31.93;18.30;;;;;;;13.53;100.00;100098.48;1732882;81;21686;-68
2021/09/18 00:52:51;;;;;;;30.37;19.70;;;;;;;13.53;100.00;100099.28;1728179;82;21830;-70
2021/09/18 00:55:18;;;;;;;37.33;20.70;;;;;;;13.67;100.00;100103.95;1733174;82;21307;-72
2021/09/18 00:57:45;;;;;;;35.33;19.43;;;;;;;13.51;100.00;100109.14;1729194;82;21573;-71
2021/09/18 01:00:14;;;;;;;27.03;17.37;;;;;;;13.64;100.00;100108.32;1732653;82;22093;-68
2021/09/18 01:02:43;;;;;;;23.55;14.75;;;;;;;13.65;100.00;100108.61;1734780;82;21300;-69
2021/09/18 01:05:10;;;;;;;25.07;14.97;;;;;;;13.73;100.00;100109.69;1734631;80;21158;-72
2021/09/18 01:07:39;;;;;;;21.80;14.10;;;;;;;13.72;100.00;100113.84;1728873;82;21667;-70
2021/09/18 01:10:07;;;;;;;22.20;13.70;;;;;;;13.82;100.00;100117.60;1742082;82;21612;-68
2021/09/18 01:12:34;;;;;;;21.53;13.10;;;;;;;13.89;100.00;100109.72;1739722;82;21356;-68
2021/09/18 01:15:01;;;;;;;24.10;13.27;;;;;;;13.87;100.00;100117.00;1740513;82;21829;-75
2021/09/18 01:17:30;;;;;;;23.47;11.67;;;;;;;14.01;100.00;100107.25;1738074;82;21455;-73
2021/09/18 01:19:58;;;;;;;23.63;12.60;;;;;;;14.12;100.00;100105.28;1741722;82;21655;-69
2021/09/18 01:22:25;;;;;;;23.97;14.50;;;;;;;14.09;100.00;100107.00;1739694;82;21022;-68
2021/09/18 01:24:52;;;;;;;23.03;13.77;;;;;;;14.05;100.00;100102.72;1736452;82;21803;-72
2021/09/18 01:27:18;;;;;;;20.30;12.47;;;;;;;14.02;100.00;100102.33;1737957;82;21354;-72
2021/09/18 01:29:45;;;;;;;23.20;12.47;;;;;;;14.11;100.00;100111.55;1742066;82;21255;-73
2021/09/18 01:32:18;;;;;;;22.37;13.27;;;;;;;14.09;100.00;100112.25;1736633;82;21372;-71
2021/09/18 01:34:44;;;;;;;24.70;13.23;;;;;;;13.95;100.00;100115.96;1742686;82;21199;-71
2021/09/18 01:37:11;;;;;;;22.73;13.10;;;;;;;13.85;100.00;100117.19;1738735;82;21342;-72
2021/09/18 01:39:37;;;;;;;25.23;13.37;;;;;;;13.62;100.00;100116.88;1740561;82;21251;-70
2021/09/18 01:42:05;;;;;;;22.87;13.23;;;;;;;13.65;100.00;100115.67;1739716;82;21294;-72
2021/09/18 01:44:33;;;;;;;22.23;12.43;;;;;;;13.89;100.00;100116.27;1740712;82;21706;-71
2021/09/18 01:47:00;;;;;;;25.47;14.17;;;;;;;13.89;100.00;100113.66;1739583;81;21172;-74
2021/09/18 01:49:28;;;;;;;21.53;12.27;;;;;;;13.84;100.00;100114.28;1735569;82;21704;-71
2021/09/18 01:52:04;;;;;;;20.27;12.20;;;;;;;13.84;100.00;100120.83;1719900;81;21352;-70
2021/09/18 01:54:28;;;;;;;20.43;12.13;;;;;;;13.46;100.00;100126.49;1735761;82;21381;-71
2021/09/18 01:56:55;;;;;;;21.23;12.90;;;;;;;13.27;100.00;100123.70;1739489;81;21798;-73
2021/09/18 01:59:23;;;;;;;23.30;12.07;;;;;;;13.32;100.00;100130.94;1736469;81;21431;-72
2021/09/18 02:01:51;;;;;;;23.52;12.85;;;;;;;13.13;100.00;100127.30;1741729;82;21168;-72
2021/09/18 02:04:17;;;;;;;23.80;12.27;;;;;;;13.25;100.00;100127.52;1732790;81;21461;-73
2021/09/18 02:06:43;;;;;;;24.93;12.67;;;;;;;13.44;100.00;100131.92;1737084;82;22344;-72
2021/09/18 02:09:10;;;;;;;18.97;11.70;;;;;;;13.35;100.00;100131.34;1739844;82;21605;-72
2021/09/18 02:11:37;;;;;;;23.17;11.87;;;;;;;13.40;100.00;100130.72;1735979;82;21284;-71
2021/09/18 02:14:05;;;;;;;18.97;11.10;;;;;;;13.47;100.00;100125.48;1739476;81;21055;-70
2021/09/18 02:16:32;;;;;;;23.20;12.03;;;;;;;13.55;100.00;100127.88;1741436;82;22209;-68
2021/09/18 02:19:01;;;;;;;23.47;11.30;;;;;;;13.68;100.00;100125.23;1741265;82;21033;-70
2021/09/18 02:21:30;;;;;;;24.37;10.80;;;;;;;13.65;100.00;100119.59;1739099;81;20903;-70
2021/09/18 02:23:58;;;;;;;23.37;10.83;;;;;;;13.33;100.00;100120.28;1742233;82;21748;-73
2021/09/18 02:26:26;;;;;;;18.63;10.43;;;;;;;13.32;100.00;100121.78;1737806;82;21196;-71
2021/09/18 02:28:53;;;;;;;19.60;9.93;;;;;;;13.50;100.00;100122.45;1740905;82;21768;-72
2021/09/18 02:31:21;;;;;;;18.25;10.53;;;;;;;13.56;100.00;100124.23;1741729;81;21639;-71
2021/09/18 02:33:49;;;;;;;19.10;9.07;;;;;;;13.08;100.00;100120.06;1740202;82;21484;-70
2021/09/18 02:36:16;;;;;;;23.50;10.77;;;;;;;12.99;100.00;100125.70;1739623;82;21230;-74
2021/09/18 02:38:45;;;;;;;24.50;11.08;;;;;;;12.60;100.00;100124.17;1738634;81;21276;-72
2021/09/18 02:41:11;;;;;;;23.37;10.27;;;;;;;12.71;100.00;100126.70;1740062;82;21140;-72
2021/09/18 02:43:38;;;;;;;20.50;10.73;;;;;;;12.72;100.00;100125.69;1734769;82;21722;-70
2021/09/18 02:46:04;;;;;;;18.40;10.83;;;;;;;12.84;100.00;100117.56;1742426;81;21242;-68
2021/09/18 02:48:31;;;;;;;24.57;11.20;;;;;;;12.78;100.00;100124.90;1740298;81;21300;-71
2021/09/18 02:50:58;;;;;;;16.67;10.53;;;;;;;12.84;100.00;100124.11;1739928;82;21691;-71
2021/09/18 02:53:25;;;;;;;25.10;9.67;;;;;;;12.95;100.00;100117.95;1734643;82;21799;-69
2021/09/18 02:55:51;;;;;;;25.23;10.40;;;;;;;12.69;100.00;100122.19;1719327;81;21194;-69
2021/09/18 02:58:18;;;;;;;20.23;9.53;;;;;;;12.56;100.00;100122.16;1712732;82;21333;-70
2021/09/18 03:00:45;;;;;;;19.30;11.03;;;;;;;12.89;100.00;100118.27;1746269;79;22283;-72
2021/09/18 03:03:12;;;;;;;20.88;9.45;;;;;;;12.80;100.00;100128.10;1732190;82;21366;-70
2021/09/18 03:05:40;;;;;;;20.07;9.97;;;;;;;12.85;100.00;100125.71;1733986;82;21549;-70
2021/09/18 03:08:06;;;;;;;19.77;9.90;;;;;;;12.81;100.00;100119.27;1696635;82;21223;-70
2021/09/18 03:10:33;;;;;;;16.50;9.37;;;;;;;12.61;100.00;100124.97;1707994;83;21753;-70
2021/09/18 03:13:01;;;;;;;17.60;9.33;;;;;;;12.60;100.00;100132.02;1724884;82;21533;-73
2021/09/18 03:15:29;;;;;;;16.73;8.53;;;;;;;12.88;100.00;100125.82;1744590;79;21993;-70
2021/09/18 03:17:57;;;;;;;17.70;8.23;;;;;;;12.55;100.00;100126.59;1726472;82;21328;-70
2021/09/18 03:20:24;;;;;;;20.57;9.70;;;;;;;12.72;100.00;100130.91;1720333;82;21236;-70
2021/09/18 03:22:52;;;;;;;18.60;9.17;;;;;;;12.83;100.00;100136.86;1743147;79;21042;-72
2021/09/18 03:25:18;;;;;;;16.87;8.63;;;;;;;12.90;100.00;100132.44;1766384;79;21466;-70
2021/09/18 03:27:45;;;;;;;16.60;8.47;;;;;;;13.11;100.00;100131.45;1770889;80;21513;-70
2021/09/18 03:30:13;;;;;;;14.37;8.57;;;;;;;13.35;100.00;100131.34;1775617;79;21714;-70
2021/09/18 03:32:41;;;;;;;17.63;8.97;;;;;;;13.12;100.00;100134.36;1772389;79;21154;-70
2021/09/18 03:35:08;;;;;;;17.15;8.88;;;;;;;12.95;100.00;100134.95;1773554;80;21693;-71
2021/09/18 03:37:35;;;;;;;15.60;8.93;;;;;;;12.97;100.00;100138.19;1726096;82;21309;-69
2021/09/18 03:40:05;;;;;;;18.23;8.40;;;;;;;12.94;100.00;100142.52;1735634;82;21099;-70
2021/09/18 03:42:33;;;;;;;21.10;9.50;;;;;;;13.03;100.00;100143.91;1776451;79;21430;-70
2021/09/18 03:45:02;;;;;;;15.87;7.90;;;;;;;13.46;100.00;100142.20;1773242;80;21121;-72
2021/09/18 03:47:28;;;;;;;19.50;9.17;;;;;;;13.64;100.00;100139.75;1771733;79;21382;-69
2021/09/18 03:49:55;;;;;;;15.13;8.40;;;;;;;13.62;100.00;100141.76;1765978;79;21522;-69
2021/09/18 03:52:26;;;;;;;18.13;9.13;;;;;;;13.90;100.00;100140.66;1768028;79;21192;-68
2021/09/18 03:54:53;;;;;;;20.93;9.97;;;;;;;13.90;100.00;100143.28;1769333;79;21255;-77
2021/09/18 03:57:20;;;;;;;19.90;9.60;;;;;;;13.89;100.00;100137.23;1764977;80;21280;-70
2021/09/18 03:59:47;;;;;;;20.50;9.97;;;;;;;13.77;100.00;100136.28;1728831;82;20999;-70
2021/09/18 04:02:15;;;;;;;22.93;9.97;;;;;;;14.14;100.00;100141.78;1728798;81;21260;-70
2021/09/18 04:04:41;;;;;;;20.80;9.43;;;;;;;14.34;100.00;100142.48;1674350;85;21338;-76
2021/09/18 04:07:08;;;;;;;18.47;9.60;;;;;;;14.48;100.00;100146.64;1713545;81;21255;-72
2021/09/18 04:09:34;;;;;;;21.47;9.10;;;;;;;14.53;100.00;100146.03;1702156;82;21617;-71
2021/09/18 04:12:02;;;;;;;17.73;8.63;;;;;;;14.75;100.00;100143.88;1767820;80;21790;-72
2021/09/18 04:14:29;;;;;;;18.97;9.00;;;;;;;14.98;100.00;100147.23;1730645;82;21276;-71
2021/09/18 04:16:55;;;;;;;18.20;9.33;;;;;;;14.99;100.00;100144.38;1771231;79;21230;-74
2021/09/18 04:19:22;;;;;;;19.33;8.60;;;;;;;15.39;100.00;100142.72;1772990;80;21287;-69
2021/09/18 04:21:50;;;;;;;16.33;9.07;;;;;;;16.49;100.00;100143.95;1763665;79;21801;-69
2021/09/18 04:24:17;;;;;;;17.53;9.23;;;;;;;17.93;100.00;100136.97;1773815;79;21349;-71
2021/09/18 04:26:45;;;;;;;17.60;9.43;;;;;;;19.48;96.65;100134.49;1767548;79;21693;-70
2021/09/18 04:29:12;;;;;;;21.70;10.37;;;;;;;20.74;71.82;100128.19;1771233;80;21040;-74
2021/09/18 04:31:41;;;;;;;21.97;10.50;;;;;;;21.81;62.43;100127.48;1773541;79;21480;-71
2021/09/18 04:34:09;;;;;;;19.27;8.73;;;;;;;22.95;54.27;100116.23;1722989;82;21141;-71
2021/09/18 04:36:35;;;;;;;17.93;10.00;;;;;;;24.09;49.61;100117.42;1771574;79;21030;-69
2021/09/18 04:39:03;;;;;;;20.67;9.63;;;;;;;24.55;46.07;100123.27;1764266;80;21526;-74
2021/09/18 04:41:30;;;;;;;18.80;9.20;;;;;;;25.59;42.46;100121.42;1771517;79;21878;-72
2021/09/18 04:43:57;;;;;;;22.60;9.73;;;;;;;25.57;41.13;100128.11;1769581;79;20967;-70
2021/09/18 04:46:25;;;;;;;23.33;10.00;;;;;;;26.64;39.50;100123.97;1772895;79;21560;-70
2021/09/18 04:48:53;;;;;;;20.40;9.20;;;;;;;27.28;37.05;100125.53;1730592;82;21486;-75
2021/09/18 04:51:19;;;;;;;18.10;9.67;;;;;;;27.83;35.01;100124.93;1767914;79;21110;-71
2021/09/18 04:53:46;;;;;;;17.27;9.87;;;;;;;27.87;33.71;100123.78;1772338;79;21066;-71
2021/09/18 04:56:12;;;;;;;17.65;9.93;;;;;;;27.66;32.81;100127.43;1764569;79;21453;-71
2021/09/18 04:58:41;;;;;;;22.62;9.58;;;;;;;27.01;33.16;100128.41;1773166;79;21564;-70
2021/09/18 05:01:07;;;;;;;24.30;10.90;;;;;;;26.64;33.69;100135.45;1720912;82;21500;-69
2021/09/18 05:03:34;;;;;;;25.63;10.10;;;;;;;26.02;34.04;100132.63;1731995;82;21550;-69
2021/09/18 05:06:01;;;;;;;17.97;10.83;;;;;;;25.67;34.60;100130.66;1725529;82;21052;-70
2021/09/18 05:08:28;;;;;;;22.17;10.33;;;;;;;24.95;35.45;100131.42;1705442;83;20951;-69
2021/09/18 05:10:56;;;;;;;20.67;9.63;;;;;;;24.60;35.92;100130.42;1735310;82;21001;-69
2021/09/18 05:13:24;;;;;;;18.20;10.77;;;;;;;24.02;36.93;100138.51;1721615;82;21021;-75
2021/09/18 05:15:51;;;;;;;17.00;10.97;;;;;;;23.53;37.67;100139.23;1722309;83;21522;-69
2021/09/18 05:18:18;;;;;;;23.17;13.50;;;;;;;23.36;38.36;100133.97;1722190;82;21506;-69
2021/09/18 05:20:46;;;;;;;24.07;12.70;;;;;;;23.35;38.41;100133.17;1739347;81;20909;-74
2021/09/18 05:23:13;;;;;;;25.70;14.40;;;;;;;23.34;38.93;100140.89;1734930;82;22335;-69
2021/09/18 05:25:41;;;;;;;39.77;22.47;;;;;;;23.40;39.03;100144.32;1732436;82;20980;-72
2021/09/18 05:28:08;;;;;;;32.40;17.23;;;;;;;23.70;38.42;100140.79;1725311;81;21820;-68
2021/09/18 05:30:36;;;;;;;30.33;17.27;;;;;;;23.88;38.30;100139.38;1729464;82;22263;-70
2021/09/18 05:33:03;;;;;;;26.07;14.47;;;;;;;23.92;38.66;100140.42;1727566;82;21036;-70
2021/09/18 05:35:31;;;;;;;28.73;16.73;;;;;;;23.90;38.61;100135.89;1730915;81;21885;-70
2021/09/18 05:37:58;;;;;;;42.33;20.60;;;;;;;23.92;38.35;100141.22;1731002;81;20991;-74
2021/09/18 05:40:26;;;;;;;43.83;20.00;;;;;;;23.82;38.57;100132.48;1731374;82;21082;-67
2021/09/18 05:42:53;;;;;;;41.87;20.77;;;;;;;24.08;38.86;100135.27;1739588;81;21012;-69
2021/09/18 05:45:23;;;;;;;31.00;15.17;;;;;;;23.98;38.97;100133.48;1733265;82;21364;-68
2021/09/18 05:47:51;;;;;;;31.60;16.03;;;;;;;23.80;39.42;100136.76;1736365;81;20964;-69
2021/09/18 05:50:18;;;;;;;28.80;14.80;;;;;;;23.91;39.96;100134.84;1717248;82;21072;-69
2021/09/18 05:52:44;;;;;;;26.00;14.83;;;;;;;23.96;40.07;100137.47;1728096;81;21088;-77
2021/09/18 05:55:11;;;;;;;40.00;17.27;;;;;;;23.89;40.42;100137.77;1723325;82;21013;-65
2021/09/18 05:57:38;;;;;;;33.67;16.60;;;;;;;24.15;40.23;100134.97;1725798;81;21051;-66
2021/09/18 06:00:06;;;;;;;32.73;15.00;;;;;;;24.21;40.10;100137.88;1739931;82;21106;-66
2021/09/18 06:02:33;;;;;;;31.57;16.37;;;;;;;24.34;40.00;100135.91;1744884;80;21006;-69
2021/09/18 06:05:01;;;;;;;28.87;15.77;;;;;;;24.60;40.05;100127.75;1761001;80;20889;-68
2021/09/18 06:07:29;;;;;;;30.33;16.13;;;;;;;24.97;40.07;100130.62;1767788;80;21046;-66
2021/09/18 06:09:56;;;;;;;32.53;16.37;;;;;;;25.41;39.25;100128.30;1764411;79;20995;-68
2021/09/18 06:12:24;;;;;;;29.10;14.67;;;;;;;26.23;37.98;100123.25;1770297;80;21198;-68
2021/09/18 06:14:52;;;;;;;25.27;13.97;;;;;;;26.86;37.34;100120.11;1763478;80;21414;-67
2021/09/18 06:17:20;;;;;;;27.80;12.43;;;;;;;27.70;36.50;100120.38;1766796;80;20963;-63
2021/09/18 06:19:48;;;;;;;17.83;10.90;;;;;;;27.96;35.66;100115.81;1762615;80;20909;-63
2021/09/18 06:22:15;;;;;;;19.97;12.00;;;;;;;27.80;36.05;100121.51;1770505;80;21062;-63
2021/09/18 06:24:44;;;;;;;25.88;13.48;;;;;;;28.11;35.93;100116.83;1766663;80;20927;-63
2021/09/18 06:27:12;;;;;;;27.77;12.93;;;;;;;27.97;36.08;100121.44;1766519;80;21086;-63
2021/09/18 06:29:38;;;;;;;22.65;12.68;;;;;;;28.20;35.60;100116.34;1772309;80;21000;-63
2021/09/18 06:32:10;;;;;;;24.80;12.47;;;;;;;28.54;35.42;100114.47;1766401;80;22093;-64
2021/09/18 06:34:37;;;;;;;21.82;11.70;;;;;;;29.03;34.72;100107.88;1766404;79;20976;-66
2021/09/18 06:37:05;;;;;;;22.82;14.20;;;;;;;29.47;33.99;100110.95;1767255;80;21509;-63
2021/09/18 06:39:33;;;;;;;21.02;11.70;;;;;;;29.85;33.62;100114.39;1763982;80;21222;-70
2021/09/18 06:42:00;;;;;;;22.45;12.98;;;;;;;30.31;33.08;100106.28;1763083;80;20997;-64
2021/09/18 06:44:27;;;;;;;21.85;13.22;;;;;;;30.81;31.80;100115.69;1764540;80;20955;-67
2021/09/18 06:46:54;;;;;;;22.02;13.40;;;;;;;31.11;31.29;100107.88;1771160;80;21061;-67
2021/09/18 06:49:21;;;;;;;22.25;14.55;;;;;;;31.44;30.91;100104.01;1764880;80;21069;-68
2021/09/18 06:51:48;;;;;;;21.62;14.65;;;;;;;31.97;30.18;100105.77;1760251;80;20960;-66
2021/09/18 06:54:15;;;;;;;21.50;12.03;;;;;;;32.04;29.76;100104.67;1769117;80;21521;-64
2021/09/18 06:56:42;;;;;;;16.80;11.45;;;;;;;31.93;29.78;100103.50;1762882;80;21000;-65
2021/09/18 06:59:09;;;;;;;19.35;12.58;;;;;;;32.21;29.47;100099.14;1758483;80;21510;-65
2021/09/18 07:01:35;;;;;;;18.42;10.00;;;;;;;32.15;29.77;100099.10;1765835;80;21197;-64
2021/09/18 07:04:02;;;;;;;20.05;13.45;;;;;;;32.54;29.35;100092.94;1740828;80;21502;-64
2021/09/18 07:06:29;;;;;;;21.17;12.60;;;;;;;32.95;28.93;100093.92;1726169;82;21043;-67
2021/09/18 07:08:55;;;;;;;16.42;10.43;;;;;;;33.32;28.51;100089.86;1719060;82;21113;-64
2021/09/18 07:11:23;;;;;;;20.48;11.18;;;;;;;33.82;27.82;100094.03;1722151;81;21496;-64
2021/09/18 07:13:51;;;;;;;21.95;10.55;;;;;;;34.39;27.67;100088.84;1722570;82;21947;-66
2021/09/18 07:16:19;;;;;;;19.73;10.03;;;;;;;34.49;27.13;100084.30;1724218;82;20982;-64
2021/09/18 07:18:47;;;;;;;19.45;10.95;;;;;;;34.88;26.67;100084.46;1730514;81;20925;-64
2021/09/18 07:21:14;;;;;;;26.97;9.93;;;;;;;35.12;26.05;100079.45;1719631;82;21077;-63
2021/09/18 07:23:40;;;;;;;16.77;8.20;;;;;;;34.94;26.29;100076.87;1727812;82;21017;-65
2021/09/18 07:26:10;;;;;;;10.00;6.80;;;;;;;35.08;25.99;100079.91;1718390;82;22156;-65
2021/09/18 07:28:36;;;;;;;16.32;8.33;;;;;;;35.18;25.48;100076.67;1718281;82;21425;-66
2021/09/18 07:31:02;;;;;;;14.75;7.83;;;;;;;34.99;25.82;100076.05;1730089;81;21584;-62
2021/09/18 07:33:29;;;;;;;16.75;8.70;;;;;;;35.03;25.93;100073.42;1712562;82;21064;-63
2021/09/18 07:35:55;;;;;;;14.10;8.30;;;;;;;35.07;26.05;100077.78;1704868;83;21429;-71
2021/09/18 07:38:22;;;;;;;12.43;8.28;;;;;;;35.03;25.96;100070.14;1714883;82;21089;-66
2021/09/18 07:40:53;;;;;;;14.98;8.68;;;;;;;35.22;25.71;100065.34;1732622;82;21038;-64
2021/09/18 07:43:17;;;;;;;13.08;8.50;;;;;;;35.14;25.82;100069.61;1725163;82;21092;-66
2021/09/18 07:45:43;;;;;;;10.10;7.67;;;;;;;35.17;26.22;100064.84;1733508;82;21046;-64
2021/09/18 07:48:10;;;;;;;13.00;7.28;;;;;;;34.97;26.08;100064.77;1728631;82;21024;-67
2021/09/18 07:50:37;;;;;;;14.78;8.10;;;;;;;34.54;26.54;100060.23;1727921;82;21090;-70
2021/09/18 07:53:06;;;;;;;12.40;7.15;;;;;;;34.67;26.66;100060.38;1733641;82;21110;-67
2021/09/18 07:55:34;;;;;;;9.95;5.83;;;;;;;34.74;26.32;100055.69;1727042;82;21048;-64
2021/09/18 07:58:02;;;;;;;10.80;5.40;;;;;;;34.74;25.09;100058.39;1726879;82;21008;-72
2021/09/18 08:00:29;;;;;;;9.88;5.30;;;;;;;34.21;24.73;100055.11;1730324;82;21051;-70
2021/09/18 08:02:56;;;;;;;9.38;5.80;;;;;;;33.82;24.91;100053.48;1739139;80;21333;-68
2021/09/18 08:05:24;;;;;;;9.15;5.15;;;;;;;33.55;25.26;100058.52;1780143;78;21114;-64
2021/09/18 08:07:50;;;;;;;13.38;6.08;;;;;;;33.34;25.81;100056.55;1778002;78;21773;-64
2021/09/18 08:10:17;;;;;;;12.45;6.20;;;;;;;33.13;26.29;100056.11;1771683;79;21090;-68
2021/09/18 08:12:48;;;;;;;9.00;5.85;;;;;;;32.96;26.41;100056.90;1772379;80;21456;-65
2021/09/18 08:15:16;;;;;;;8.78;6.03;;;;;;;32.75;26.64;100051.03;1746233;81;21646;-62
2021/09/18 08:17:44;;;;;;;13.30;6.17;;;;;;;32.62;27.18;100040.80;1744780;81;21494;-65
2021/09/18 08:20:13;;;;;;;9.25;6.30;;;;;;;33.10;27.11;100039.22;1738105;82;20960;-65
2021/09/18 08:22:39;;;;;;;11.15;6.95;;;;;;;33.40;27.05;100034.33;1725432;82;21067;-73
2021/09/18 08:25:09;;;;;;;10.35;6.03;;;;;;;33.78;27.19;100029.61;1701488;82;21074;-65
2021/09/18 08:27:36;;;;;;;9.80;5.55;;;;;;;33.94;26.79;100029.65;1742033;82;21764;-65
2021/09/18 08:30:05;;;;;;;10.60;6.12;;;;;;;33.60;27.26;100027.77;1703152;82;20956;-72
2021/09/18 08:32:33;;;;;;;10.58;5.62;;;;;;;33.74;27.09;100026.81;1707629;83;21126;-72
2021/09/18 08:35:04;;;;;;;9.35;5.78;;;;;;;33.82;26.78;100023.16;1701613;82;21747;-64
2021/09/18 08:37:31;;;;;;;9.28;5.65;;;;;;;33.77;27.09;100017.23;1694650;82;21038;-64
2021/09/18 08:39:58;;;;;;;12.35;6.55;;;;;;;33.62;27.59;100014.13;1700601;83;20991;-66
2021/09/18 08:42:26;;;;;;;13.03;7.40;;;;;;;33.55;27.51;100012.58;1702573;83;21369;-63
2021/09/18 08:44:53;;;;;;;11.08;6.55;;;;;;;33.46;27.36;100013.84;1696998;82;21008;-65
2021/09/18 08:47:22;;;;;;;10.28;5.97;;;;;;;33.17;27.65;100000.28;1700527;83;20953;-68
2021/09/18 08:49:49;;;;;;;18.10;6.47;;;;;;;33.14;28.01;100002.30;1702579;83;21038;-71
2021/09/18 08:52:16;;;;;;;13.55;5.87;;;;;;;33.05;27.89;100000.88;1698648;82;21145;-67
2021/09/18 08:54:43;;;;;;;10.05;6.28;;;;;;;33.15;27.75;99998.50;1697530;83;20947;-66
2021/09/18 08:57:10;;;;;;;13.53;6.80;;;;;;;32.64;27.61;99992.66;1699728;83;20976;-63
2021/09/18 08:59:38;;;;;;;15.20;5.55;;;;;;;32.59;27.37;99991.55;1729944;82;21545;-67
2021/09/18 09:02:14;;;;;;;12.40;5.83;;;;;;;32.33;27.40;99991.05;1728866;80;21043;-65
2021/09/18 09:04:42;;;;;;;10.28;5.62;;;;;;;31.95;28.38;99990.75;1703400;82;21130;-73
2021/09/18 09:07:10;;;;;;;15.98;6.75;;;;;;;31.66;28.92;100000.48;1726675;82;21047;-65
2021/09/18 09:10:00;;;;;;;14.73;7.15;;;;;;;31.32;29.92;99994.04;1749956;80;21081;-65
2021/09/18 09:12:36;;;;;;;14.87;6.15;;;;;;;31.28;29.23;99997.91;1756356;80;21635;-64
2021/09/18 09:15:08;;;;;;;10.72;5.15;;;;;;;31.20;29.49;99995.52;1776018;79;21082;-65
2021/09/18 09:17:38;;;;;;;11.68;5.40;;;;;;;31.18;29.43;99991.59;1729278;81;21210;-64
2021/09/18 09:20:09;;;;;;;12.98;5.55;;;;;;;31.15;29.15;99994.37;1722232;82;20921;-68
2021/09/18 09:22:44;;;;;;;12.30;5.45;;;;;;;31.31;29.37;99990.56;1713620;81;21157;-67
2021/09/18 09:25:33;;;;;;;8.95;4.97;;;;;;;31.39;28.90;99997.00;1761425;79;21038;-67
2021/09/18 09:28:38;;;;;;;12.23;4.10;;;;;;;31.38;28.14;99982.75;1767257;80;20936;-65
2021/09/18 09:31:26;;;;;;;12.05;5.35;;;;;;;31.19;27.65;99980.48;1770989;80;21078;-72
2021/09/18 09:34:11;;;;;;;10.08;5.37;;;;;;;30.70;28.34;99997.61;1772872;79;21495;-64
2021/09/18 09:36:46;;;;;;;8.65;4.40;;;;;;;30.15;28.86;99988.98;1772045;79;21097;-67
2021/09/18 09:39:17;;;;;;;10.45;4.28;;;;;;;30.42;29.02;99991.07;1723443;81;21081;-67
2021/09/18 09:41:47;;;;;;;11.60;4.78;;;;;;;30.19;29.81;99985.95;1728777;82;21088;-66
2021/09/18 09:44:23;;;;;;;14.13;4.22;;;;;;;30.13;29.58;99980.47;1767954;79;21316;-70
2021/09/18 09:47:09;;;;;;;14.28;4.47;;;;;;;30.06;29.15;99984.98;1725759;82;21071;-66
2021/09/18 09:49:59;;;;;;;18.55;5.72;;;;;;;29.74;29.38;99991.70;1720590;81;21048;-66
2021/09/18 09:52:34;;;;;;;8.90;4.30;;;;;;;29.67;29.30;99986.00;1695508;82;20909;-65
2021/09/18 09:55:17;;;;;;;11.73;4.60;;;;;;;29.66;29.21;99980.38;1699083;82;21227;-71
2021/09/18 09:57:59;;;;;;;14.40;4.70;;;;;;;29.76;29.58;99976.59;1701039;82;21899;-65
2021/09/18 10:00:51;;;;;;;7.70;4.13;;;;;;;29.94;28.54;99977.36;1686337;82;20989;-67
2021/09/18 10:03:22;;;;;;;10.43;4.60;;;;;;;29.61;29.15;99977.08;1757354;80;21122;-66
2021/09/18 10:05:49;;;;;;;7.65;3.87;;;;;;;29.85;29.33;99980.59;1761471;79;21027;-65
2021/09/18 10:08:22;;;;;;;11.43;3.83;;;;;;;30.33;28.87;99973.62;1762792;79;20841;-69
2021/09/18 10:10:51;;;;;;;12.63;3.70;;;;;;;30.64;28.55;99970.64;1760902;79;21149;-71
2021/09/18 10:13:25;;;;;;;8.48;3.72;;;;;;;31.07;27.51;99968.30;1764714;79;21782;-65
2021/09/18 10:15:52;;;;;;;7.83;3.62;;;;;;;31.35;26.70;99963.77;1761512;79;21031;-65
2021/09/18 10:18:19;;;;;;;6.45;4.00;;;;;;;31.28;26.36;99958.08;1762418;79;20924;-65
2021/09/18 10:23:20;;;;;;;9.03;3.67;;;;;;;31.12;26.56;99959.23;1764366;79;21091;-65
2021/09/18 10:25:50;;;;;;;10.40;3.35;;;;;;;31.20;26.24;99957.81;1762839;79;21433;-65
2021/09/18 10:28:25;;;;;;;5.03;3.42;;;;;;;31.22;26.24;99959.64;1763170;79;20888;-69
2021/09/18 10:31:21;;;;;;;9.23;6.15;;;;;;;31.23;26.20;99949.09;1764164;79;21530;-66
2021/09/18 10:33:49;;;;;;;13.45;4.40;;;;;;;31.08;26.60;99955.06;1765976;79;20909;-71
2021/09/18 10:36:21;;;;;;;12.85;4.05;;;;;;;30.83;27.12;99950.63;1764499;79;22054;-65
2021/09/18 10:39:05;;;;;;;8.73;3.67;;;;;;;30.78;27.10;99963.16;1757133;79;20884;-66
2021/09/18 10:41:55;;;;;;;6.97;3.60;;;;;;;30.54;26.73;99948.16;1764146;79;21521;-69
2021/09/18 10:44:24;;;;;;;10.13;3.80;;;;;;;30.35;27.20;99948.56;1758140;79;20971;-65
2021/09/18 10:46:58;;;;;;;8.25;4.10;;;;;;;30.33;27.22;99943.27;1755934;80;21474;-66
2021/09/18 10:49:40;;;;;;;8.00;3.87;;;;;;;30.36;27.20;99934.00;1755328;80;21246;-66
2021/09/18 10:52:25;;;;;;;8.20;3.90;;;;;;;30.60;27.07;99938.78;1749230;79;21469;-65
2021/09/18 10:55:08;;;;;;;8.27;3.67;;;;;;;30.49;27.24;99936.22;1755124;79;21026;-72
2021/09/18 10:57:51;;;;;;;8.60;4.03;;;;;;;30.50;27.21;99932.44;1759542;79;21044;-67
2021/09/18 11:00:27;;;;;;;7.53;3.83;;;;;;;30.70;26.57;99927.65;1766097;79;20920;-66
2021/09/18 11:02:58;;;;;;;8.10;4.12;;;;;;;30.52;26.90;99932.33;1754508;80;21165;-66
2021/09/18 11:05:40;;;;;;;5.87;3.10;;;;;;;30.57;26.55;99950.18;1755182;79;21047;-66
2021/09/18 11:08:20;;;;;;;11.57;3.65;;;;;;;30.78;25.89;99933.56;1751538;80;21012;-70
2021/09/18 11:10:52;;;;;;;9.60;6.55;;;;;;;30.61;26.12;99930.14;1767656;79;20932;-69
2021/09/18 11:13:36;;;;;;;9.85;3.67;;;;;;;30.75;25.93;99928.05;1764190;79;20928;-68
2021/09/18 11:16:23;;;;;;;6.87;3.47;;;;;;;30.76;25.25;99929.08;1761062;79;22026;-66
2021/09/18 11:18:59;;;;;;;12.13;3.73;;;;;;;30.58;25.38;99928.91;1761165;79;20991;-68
2021/09/18 11:21:37;;;;;;;5.90;3.17;;;;;;;30.42;25.81;99925.17;1752520;79;21819;-67
2021/09/18 11:24:19;;;;;;;6.53;2.83;;;;;;;30.36;25.71;99922.45;1737114;80;21487;-66
2021/09/18 11:26:58;;;;;;;8.30;3.10;;;;;;;30.21;24.88;99918.41;1734368;80;21517;-70